createdAt,value
2023-05-20T00:04:44.652Z,0
2023-05-20T00:09:48.775Z,0
2023-05-20T00:14:53.932Z,0
2023-05-20T00:19:57.104Z,0
2023-05-20T00:25:01.267Z,0
2023-05-20T00:30:05.465Z,0
2023-05-20T00:45:17.923Z,0
2023-05-20T00:55:26.229Z,0
2023-05-20T01:00:28.535Z,0
2023-05-20T01:05:30.830Z,0
2023-05-20T01:10:41.956Z,0
2023-05-20T01:15:53.190Z,0
2023-05-20T01:21:04.313Z,0
2023-05-20T01:26:15.461Z,0
2023-05-20T01:31:26.651Z,0
2023-05-20T01:36:28.925Z,0
2023-05-20T01:41:33.092Z,0
2023-05-20T01:46:37.268Z,0
2023-05-20T01:51:41.400Z,0
2023-05-20T01:56:45.546Z,0
2023-05-20T02:01:47.841Z,0
2023-05-20T02:06:52.007Z,0
2023-05-20T02:11:56.133Z,0
2023-05-20T02:17:00.321Z,0
2023-05-20T02:22:04.460Z,0
2023-05-20T02:27:08.662Z,0
2023-05-20T02:32:12.799Z,0
2023-05-20T02:37:16.970Z,0
2023-05-20T02:42:21.146Z,0
2023-05-20T02:47:25.316Z,0
2023-05-20T02:52:29.438Z,0
2023-05-20T02:57:33.620Z,0
2023-05-20T03:02:37.807Z,0
2023-05-20T03:07:41.951Z,3
2023-05-20T03:12:46.091Z,6
2023-05-20T03:17:48.379Z,13
2023-05-20T03:22:52.526Z,26
2023-05-20T03:27:56.669Z,47
2023-05-20T03:33:00.880Z,80
2023-05-20T03:38:05.006Z,120
2023-05-20T03:43:09.160Z,181
2023-05-20T03:48:13.335Z,264
2023-05-20T03:53:17.535Z,401
2023-05-20T03:58:21.654Z,579
2023-05-20T04:03:25.963Z,775
2023-05-20T04:08:29.961Z,996
2023-05-20T04:13:34.135Z,1224
2023-05-20T04:18:38.280Z,1443
2023-05-20T04:23:42.464Z,1695
2023-05-20T04:28:46.619Z,1961
2023-05-20T04:33:50.783Z,2230
2023-05-20T04:38:54.925Z,2445
2023-05-20T04:43:59.114Z,2573
2023-05-20T04:49:03.258Z,2647
2023-05-20T04:54:07.427Z,2688
2023-05-20T04:59:09.739Z,2712
2023-05-20T05:04:13.916Z,2800
2023-05-20T05:09:18.000Z,2853
2023-05-20T05:14:22.165Z,2755
2023-05-20T05:19:26.383Z,2687
2023-05-20T05:24:30.560Z,2647
2023-05-20T05:29:35.051Z,2642
2023-05-20T05:34:38.856Z,2764
2023-05-20T05:39:43.339Z,3012
2023-05-20T05:44:49.195Z,3080
2023-05-20T05:49:51.318Z,3800
2023-05-20T05:54:55.469Z,5500
2023-05-20T05:59:59.644Z,5693
2023-05-20T06:05:03.798Z,3665
2023-05-20T06:10:07.965Z,3342
2023-05-20T06:15:12.124Z,3835
2023-05-20T06:20:16.301Z,3862
2023-05-20T06:25:20.419Z,5191
2023-05-20T06:30:24.679Z,6025
2023-05-20T06:35:28.763Z,4637
2023-05-20T06:40:32.917Z,5374
2023-05-20T06:45:37.112Z,6253
2023-05-20T06:50:41.267Z,6544
2023-05-20T06:55:45.396Z,6903
2023-05-20T07:00:49.607Z,6890
2023-05-20T07:05:53.765Z,6950
2023-05-20T07:10:57.861Z,7115
2023-05-20T07:16:02.073Z,7731
2023-05-20T07:21:06.207Z,8512
2023-05-20T07:26:10.335Z,8660
2023-05-20T07:31:14.591Z,9089
2023-05-20T07:36:18.684Z,9680
2023-05-20T07:41:22.819Z,9732
2023-05-20T07:46:27.083Z,10275
2023-05-20T07:51:31.140Z,10230
2023-05-20T07:56:35.351Z,10265
2023-05-20T08:01:39.516Z,10210
2023-05-20T08:06:43.650Z,11274
2023-05-20T08:11:47.811Z,11113
2023-05-20T08:16:54.614Z,10769
2023-05-20T08:21:56.176Z,11213
2023-05-20T08:27:00.286Z,11658
2023-05-20T08:32:04.469Z,10284
2023-05-20T08:37:08.582Z,11603
2023-05-20T08:42:12.775Z,12158
2023-05-20T08:47:16.878Z,13178
2023-05-20T08:52:21.117Z,12840
2023-05-20T08:57:25.265Z,12604
2023-05-20T09:02:29.462Z,12526
2023-05-20T09:07:33.596Z,12726
2023-05-20T09:12:37.752Z,13086
2023-05-20T09:17:41.944Z,12867
2023-05-20T09:22:46.024Z,14251
2023-05-20T09:27:50.214Z,13349
2023-05-20T09:32:54.401Z,11966
2023-05-20T09:37:58.522Z,11821
2023-05-20T09:43:02.704Z,11544
2023-05-20T09:48:06.892Z,12221
2023-05-20T09:53:10.979Z,11075
2023-05-20T09:58:16.365Z,10994
2023-05-20T10:03:19.407Z,11155
2023-05-20T10:08:23.489Z,11481
2023-05-20T10:13:27.626Z,11235
2023-05-20T10:18:31.841Z,12345
2023-05-20T10:23:35.946Z,13564
2023-05-20T10:28:38.217Z,13418
2023-05-20T10:33:42.455Z,14622
2023-05-20T10:38:46.545Z,14226
2023-05-20T10:43:50.663Z,14806
2023-05-20T10:48:55.029Z,16228
2023-05-20T10:53:59.014Z,16798
2023-05-20T10:59:03.191Z,16982
2023-05-20T11:04:07.454Z,16279
2023-05-20T11:09:11.516Z,16740
2023-05-20T11:14:15.656Z,16999
2023-05-20T11:19:19.995Z,18002
2023-05-20T11:24:23.996Z,18366
2023-05-20T11:29:28.156Z,16882
2023-05-20T11:34:32.331Z,18596
2023-05-20T11:39:36.480Z,17476
2023-05-20T11:44:40.592Z,15515
2023-05-20T11:49:44.793Z,12888
2023-05-20T11:54:48.949Z,14866
2023-05-20T11:59:53.088Z,13456
2023-05-20T12:04:57.401Z,17354
2023-05-20T12:10:01.402Z,14076
2023-05-20T12:15:05.556Z,16873
2023-05-20T12:20:09.702Z,14924
2023-05-20T12:25:13.874Z,13777
2023-05-20T12:30:18.044Z,15746
2023-05-20T12:35:22.212Z,13993
2023-05-20T12:40:26.338Z,14525
2023-05-20T12:45:30.717Z,15866
2023-05-20T12:50:35.183Z,12886
2023-05-20T12:55:38.824Z,12975
2023-05-20T13:00:43.018Z,15806
2023-05-20T13:05:47.134Z,12613
2023-05-20T13:10:51.299Z,9185
2023-05-20T13:15:55.500Z,11181
2023-05-20T13:20:59.655Z,9501
2023-05-20T13:26:03.804Z,11803
2023-05-20T13:31:07.973Z,12316
2023-05-20T13:36:12.096Z,10894
2023-05-20T13:41:16.277Z,9994
2023-05-20T13:46:20.504Z,12455
2023-05-20T13:51:24.582Z,11251
2023-05-20T13:56:28.757Z,9808
2023-05-20T14:01:32.966Z,9602
2023-05-20T14:06:37.097Z,8137
2023-05-20T14:11:41.612Z,8865
2023-05-20T14:16:45.383Z,15194
2023-05-20T14:21:49.522Z,16633
2023-05-20T14:26:53.738Z,12730
2023-05-20T14:31:57.945Z,13830
2023-05-20T14:37:02.034Z,11416
2023-05-20T14:42:06.211Z,6850
2023-05-20T14:47:10.459Z,9841
2023-05-20T14:52:14.466Z,8861
2023-05-20T14:57:18.667Z,6662
2023-05-20T15:02:22.918Z,5600
2023-05-20T15:07:26.950Z,6911
2023-05-20T15:12:31.129Z,5438
2023-05-20T15:17:35.312Z,3885
2023-05-20T15:22:39.454Z,3661
2023-05-20T15:27:43.608Z,3960
2023-05-20T15:32:47.879Z,3143
2023-05-20T15:37:51.936Z,2343
2023-05-20T15:42:56.112Z,2646
2023-05-20T15:48:00.335Z,1883
2023-05-20T15:53:04.392Z,2477
2023-05-20T15:58:06.715Z,2600
2023-05-20T16:03:10.909Z,2374
2023-05-20T16:08:15.005Z,2243
2023-05-20T16:13:19.177Z,2365
2023-05-20T16:18:23.300Z,2888
2023-05-20T16:23:27.455Z,3027
2023-05-20T16:28:31.645Z,2900
2023-05-20T16:33:35.772Z,3742
2023-05-20T16:38:39.950Z,3248
2023-05-20T16:43:44.142Z,2928
2023-05-20T16:48:48.255Z,2180
2023-05-20T16:53:52.414Z,2707
2023-05-20T16:58:56.610Z,1883
2023-05-20T17:04:00.787Z,2152
2023-05-20T17:09:04.909Z,2385
2023-05-20T17:14:09.088Z,2605
2023-05-20T17:19:13.274Z,2405
2023-05-20T17:24:17.377Z,2220
2023-05-20T17:29:21.594Z,1853
2023-05-20T17:34:25.731Z,1546
2023-05-20T17:44:34.001Z,1785
2023-05-20T17:49:38.172Z,1497
2023-05-20T17:54:42.365Z,1347
2023-05-20T17:59:46.483Z,1317
2023-05-20T18:04:50.650Z,1337
2023-05-20T18:09:54.848Z,1541
2023-05-20T18:14:58.979Z,1476
2023-05-20T18:20:03.123Z,1580
2023-05-20T18:25:07.319Z,1637
2023-05-20T18:30:11.450Z,1358
2023-05-20T18:35:15.624Z,1274
2023-05-20T18:40:19.795Z,1289
2023-05-20T18:45:23.918Z,1147
2023-05-20T18:50:28.117Z,995
2023-05-20T18:55:32.264Z,791
2023-05-20T19:00:34.787Z,751
2023-05-20T19:05:39.048Z,589
2023-05-20T19:10:42.810Z,405
2023-05-20T19:15:46.979Z,327
2023-05-20T19:20:51.158Z,220
2023-05-20T19:25:55.325Z,160
2023-05-20T19:30:59.482Z,115
2023-05-20T19:36:03.662Z,75
2023-05-20T19:41:12.260Z,43
2023-05-20T19:46:12.066Z,23
2023-05-20T19:51:16.285Z,11
2023-05-20T19:56:20.284Z,5
2023-05-20T20:01:24.468Z,2
2023-05-20T20:06:28.610Z,0
2023-05-20T20:11:32.787Z,0
2023-05-20T20:16:36.966Z,0
2023-05-20T20:21:41.060Z,0
2023-05-20T20:26:45.213Z,0
2023-05-20T20:31:49.494Z,0
2023-05-20T20:36:53.566Z,0
2023-05-20T20:41:57.707Z,0
2023-05-20T20:47:01.934Z,0
2023-05-20T20:52:06.045Z,0
2023-05-20T20:57:10.186Z,0
2023-05-20T21:02:14.340Z,0
2023-05-20T21:07:18.583Z,0
2023-05-20T21:12:22.701Z,0
2023-05-20T21:17:26.881Z,0
2023-05-20T21:22:31.081Z,0
2023-05-20T21:27:35.195Z,0
2023-05-20T21:32:39.350Z,0
2023-05-20T21:37:43.523Z,0
2023-05-20T21:42:47.611Z,0
2023-05-20T21:47:51.862Z,0
2023-05-20T21:52:55.970Z,0
2023-05-20T21:58:00.162Z,0
2023-05-20T22:03:04.310Z,0
2023-05-20T22:08:08.441Z,0
2023-05-20T22:13:12.587Z,0
2023-05-20T22:18:16.758Z,0
2023-05-20T22:23:20.954Z,0
2023-05-20T22:28:25.047Z,0
2023-05-20T22:33:29.250Z,0
2023-05-20T22:38:33.408Z,0
2023-05-20T22:43:37.561Z,0
2023-05-20T22:48:41.729Z,0
2023-05-20T22:53:45.852Z,0
2023-05-20T22:58:50.042Z,0
2023-05-20T23:03:54.224Z,0
2023-05-20T23:08:58.352Z,0
2023-05-20T23:14:02.537Z,0
2023-05-20T23:19:06.756Z,0
2023-05-20T23:24:10.826Z,0
2023-05-20T23:29:15.063Z,0
2023-05-20T23:34:19.248Z,0
2023-05-20T23:39:23.306Z,0
2023-05-20T23:44:27.484Z,0
2023-05-20T23:49:31.625Z,0
2023-05-20T23:54:35.831Z,0
2023-05-20T23:59:39.959Z,0
